sensor_id;sensor_type;location;lat;lon;timestamp;P1;durP1;ratioP1;P2;durP2;ratioP2
57323;SDS011;43160;51.008;18.248;2023-10-19T00:08:10;30.40;;;13.70;;
57323;SDS011;43160;51.008;18.248;2023-10-19T00:18:12;38.10;;;12.90;;
57323;SDS011;43160;51.008;18.248;2023-10-19T00:28:21;34.00;;;13.90;;
57323;SDS011;43160;51.008;18.248;2023-10-19T00:38:30;15.70;;;7.40;;
57323;SDS011;43160;51.008;18.248;2023-10-19T00:48:35;33.30;;;12.70;;
57323;SDS011;43160;51.008;18.248;2023-10-19T00:58:31;27.30;;;11.50;;
57323;SDS011;43160;51.008;18.248;2023-10-19T01:08:31;31.90;;;13.70;;
57323;SDS011;43160;51.008;18.248;2023-10-19T01:18:29;29.80;;;12.90;;
57323;SDS011;43160;51.008;18.248;2023-10-19T01:28:22;32.40;;;15.70;;
57323;SDS011;43160;51.008;18.248;2023-10-19T01:38:33;34.10;;;14.60;;
57323;SDS011;43160;51.008;18.248;2023-10-19T01:48:22;30.10;;;13.50;;
57323;SDS011;43160;51.008;18.248;2023-10-19T01:58:38;39.60;;;15.90;;
57323;SDS011;43160;51.008;18.248;2023-10-19T02:09:07;26.60;;;14.00;;
57323;SDS011;43160;51.008;18.248;2023-10-19T02:19:02;34.80;;;15.40;;
57323;SDS011;43160;51.008;18.248;2023-10-19T02:28:51;37.80;;;13.70;;
57323;SDS011;43160;51.008;18.248;2023-10-19T02:38:58;29.90;;;12.10;;
57323;SDS011;43160;51.008;18.248;2023-10-19T02:49:11;34.90;;;13.60;;
57323;SDS011;43160;51.008;18.248;2023-10-19T02:59:18;30.30;;;13.00;;
57323;SDS011;43160;51.008;18.248;2023-10-19T03:09:06;24.40;;;11.70;;
57323;SDS011;43160;51.008;18.248;2023-10-19T03:19:22;36.50;;;12.70;;
57323;SDS011;43160;51.008;18.248;2023-10-19T03:29:15;36.50;;;14.50;;
57323;SDS011;43160;51.008;18.248;2023-10-19T03:39:05;32.90;;;14.30;;
57323;SDS011;43160;51.008;18.248;2023-10-19T03:49:21;30.10;;;11.70;;
57323;SDS011;43160;51.008;18.248;2023-10-19T03:59:45;33.30;;;12.80;;
57323;SDS011;43160;51.008;18.248;2023-10-19T04:09:50;36.20;;;15.10;;
57323;SDS011;43160;51.008;18.248;2023-10-19T04:20:06;34.20;;;15.20;;
57323;SDS011;43160;51.008;18.248;2023-10-19T04:30:22;35.60;;;16.30;;
57323;SDS011;43160;51.008;18.248;2023-10-19T04:40:13;35.60;;;17.10;;
57323;SDS011;43160;51.008;18.248;2023-10-19T04:50:00;38.40;;;14.20;;
57323;SDS011;43160;51.008;18.248;2023-10-19T05:07:03;35.10;;;14.70;;
57323;SDS011;43160;51.008;18.248;2023-10-19T05:16:48;43.60;;;17.70;;
57323;SDS011;43160;51.008;18.248;2023-10-19T05:26:36;34.10;;;16.70;;
57323;SDS011;43160;51.008;18.248;2023-10-19T05:36:19;45.90;;;20.00;;
57323;SDS011;43160;51.008;18.248;2023-10-19T05:46:03;52.20;;;21.20;;
57323;SDS011;43160;51.008;18.248;2023-10-19T05:55:48;42.60;;;19.90;;
57323;SDS011;43160;51.008;18.248;2023-10-19T06:05:33;51.00;;;21.60;;
57323;SDS011;43160;51.008;18.248;2023-10-19T06:15:19;41.90;;;21.20;;
57323;SDS011;43160;51.008;18.248;2023-10-19T06:25:22;48.70;;;22.90;;
57323;SDS011;43160;51.008;18.248;2023-10-19T06:35:30;46.60;;;19.40;;
57323;SDS011;43160;51.008;18.248;2023-10-19T06:45:17;55.00;;;23.30;;
57323;SDS011;43160;51.008;18.248;2023-10-19T06:55:13;58.00;;;22.10;;
57323;SDS011;43160;51.008;18.248;2023-10-19T07:05:11;50.40;;;21.50;;
57323;SDS011;43160;51.008;18.248;2023-10-19T07:15:00;52.30;;;22.60;;
57323;SDS011;43160;51.008;18.248;2023-10-19T07:24:50;37.10;;;18.10;;
57323;SDS011;43160;51.008;18.248;2023-10-19T07:34:39;56.40;;;22.70;;
57323;SDS011;43160;51.008;18.248;2023-10-19T07:44:25;51.90;;;24.00;;
57323;SDS011;43160;51.008;18.248;2023-10-19T07:54:12;37.60;;;14.00;;
57323;SDS011;43160;51.008;18.248;2023-10-19T08:03:57;64.50;;;23.80;;
57323;SDS011;43160;51.008;18.248;2023-10-19T08:13:42;51.40;;;21.10;;
57323;SDS011;43160;51.008;18.248;2023-10-19T08:23:27;25.00;;;12.60;;
57323;SDS011;43160;51.008;18.248;2023-10-19T08:33:22;42.50;;;19.90;;
57323;SDS011;43160;51.008;18.248;2023-10-19T08:43:11;19.20;;;10.00;;
57323;SDS011;43160;51.008;18.248;2023-10-19T08:52:58;60.00;;;21.30;;
57323;SDS011;43160;51.008;18.248;2023-10-19T09:02:47;41.90;;;22.00;;
57323;SDS011;43160;51.008;18.248;2023-10-19T09:13:00;53.80;;;21.40;;
57323;SDS011;43160;51.008;18.248;2023-10-19T09:22:54;41.50;;;18.00;;
57323;SDS011;43160;51.008;18.248;2023-10-19T09:32:47;33.80;;;13.00;;
57323;SDS011;43160;51.008;18.248;2023-10-19T09:42:42;25.20;;;12.40;;
57323;SDS011;43160;51.008;18.248;2023-10-19T09:52:33;24.40;;;11.20;;
57323;SDS011;43160;51.008;18.248;2023-10-19T10:02:43;25.40;;;10.60;;
57323;SDS011;43160;51.008;18.248;2023-10-19T10:23:44;34.30;;;14.10;;
57323;SDS011;43160;51.008;18.248;2023-10-19T10:34:02;47.80;;;18.30;;
57323;SDS011;43160;51.008;18.248;2023-10-19T10:43:57;31.20;;;13.50;;
57323;SDS011;43160;51.008;18.248;2023-10-19T10:53:45;29.60;;;13.00;;
57323;SDS011;43160;51.008;18.248;2023-10-19T11:03:31;34.30;;;15.40;;
57323;SDS011;43160;51.008;18.248;2023-10-19T11:13:27;27.30;;;11.90;;
57323;SDS011;43160;51.008;18.248;2023-10-19T11:23:34;35.00;;;17.60;;
57323;SDS011;43160;51.008;18.248;2023-10-19T11:33:43;41.60;;;18.40;;
57323;SDS011;43160;51.008;18.248;2023-10-19T11:43:34;62.40;;;24.20;;
57323;SDS011;43160;51.008;18.248;2023-10-19T11:53:19;52.50;;;25.00;;
57323;SDS011;43160;51.008;18.248;2023-10-19T12:03:09;45.70;;;22.40;;
57323;SDS011;43160;51.008;18.248;2023-10-19T12:13:04;56.80;;;24.90;;
57323;SDS011;43160;51.008;18.248;2023-10-19T12:18:00;79.50;;;46.10;;
57323;SDS011;43160;51.008;18.248;2023-10-19T12:27:55;64.80;;;34.30;;
57323;SDS011;43160;51.008;18.248;2023-10-19T12:37:50;43.60;;;16.80;;
57323;SDS011;43160;51.008;18.248;2023-10-19T12:47:51;68.60;;;34.50;;
57323;SDS011;43160;51.008;18.248;2023-10-19T12:52:48;132.70;;;65.30;;
57323;SDS011;43160;51.008;18.248;2023-10-19T13:02:57;64.60;;;26.20;;
57323;SDS011;43160;51.008;18.248;2023-10-19T13:12:53;72.00;;;33.00;;
57323;SDS011;43160;51.008;18.248;2023-10-19T13:22:43;46.10;;;19.50;;
57323;SDS011;43160;51.008;18.248;2023-10-19T13:32:36;63.90;;;28.50;;
57323;SDS011;43160;51.008;18.248;2023-10-19T13:42:20;58.50;;;25.50;;
57323;SDS011;43160;51.008;18.248;2023-10-19T13:52:04;44.60;;;21.20;;
57323;SDS011;43160;51.008;18.248;2023-10-19T14:01:50;49.00;;;21.30;;
57323;SDS011;43160;51.008;18.248;2023-10-19T14:11:38;36.90;;;18.00;;
57323;SDS011;43160;51.008;18.248;2023-10-19T14:21:22;28.80;;;14.10;;
57323;SDS011;43160;51.008;18.248;2023-10-19T14:31:10;23.80;;;8.20;;
57323;SDS011;43160;51.008;18.248;2023-10-19T14:40:55;23.60;;;12.70;;
57323;SDS011;43160;51.008;18.248;2023-10-19T14:50:40;50.00;;;21.50;;
57323;SDS011;43160;51.008;18.248;2023-10-19T15:07:52;56.70;;;28.70;;
57323;SDS011;43160;51.008;18.248;2023-10-19T15:17:39;53.60;;;22.50;;
57323;SDS011;43160;51.008;18.248;2023-10-19T15:27:29;51.40;;;24.50;;
57323;SDS011;43160;51.008;18.248;2023-10-19T15:37:17;54.20;;;24.20;;
57323;SDS011;43160;51.008;18.248;2023-10-19T15:47:03;58.00;;;26.70;;
57323;SDS011;43160;51.008;18.248;2023-10-19T15:54:29;95.80;;;48.00;;
57323;SDS011;43160;51.008;18.248;2023-10-19T16:04:13;62.90;;;26.80;;
57323;SDS011;43160;51.008;18.248;2023-10-19T16:13:56;56.10;;;23.40;;
57323;SDS011;43160;51.008;18.248;2023-10-19T16:23:40;65.50;;;27.30;;
57323;SDS011;43160;51.008;18.248;2023-10-19T16:33:29;77.80;;;31.40;;
57323;SDS011;43160;51.008;18.248;2023-10-19T16:43:16;67.70;;;30.10;;
57323;SDS011;43160;51.008;18.248;2023-10-19T16:52:59;74.50;;;29.20;;
57323;SDS011;43160;51.008;18.248;2023-10-19T17:02:47;65.60;;;30.00;;
57323;SDS011;43160;51.008;18.248;2023-10-19T17:12:31;44.90;;;19.80;;
57323;SDS011;43160;51.008;18.248;2023-10-19T17:22:18;87.70;;;30.40;;
57323;SDS011;43160;51.008;18.248;2023-10-19T17:32:03;90.30;;;35.00;;
57323;SDS011;43160;51.008;18.248;2023-10-19T17:41:49;79.90;;;33.00;;
57323;SDS011;43160;51.008;18.248;2023-10-19T17:51:32;68.40;;;27.90;;
57323;SDS011;43160;51.008;18.248;2023-10-19T18:01:18;67.30;;;29.90;;
57323;SDS011;43160;51.008;18.248;2023-10-19T18:11:03;71.60;;;28.00;;
57323;SDS011;43160;51.008;18.248;2023-10-19T18:20:51;77.10;;;32.20;;
57323;SDS011;43160;51.008;18.248;2023-10-19T18:30:35;86.70;;;32.30;;
57323;SDS011;43160;51.008;18.248;2023-10-19T18:40:19;78.70;;;32.50;;
57323;SDS011;43160;51.008;18.248;2023-10-19T18:50:06;89.90;;;34.30;;
57323;SDS011;43160;51.008;18.248;2023-10-19T18:59:51;68.20;;;25.00;;
57323;SDS011;43160;51.008;18.248;2023-10-19T19:09:35;65.60;;;30.00;;
57323;SDS011;43160;51.008;18.248;2023-10-19T19:19:18;83.60;;;34.50;;
57323;SDS011;43160;51.008;18.248;2023-10-19T19:29:01;90.80;;;34.80;;
57323;SDS011;43160;51.008;18.248;2023-10-19T19:38:45;108.60;;;39.30;;
57323;SDS011;43160;51.008;18.248;2023-10-19T19:48:30;94.30;;;36.90;;
57323;SDS011;43160;51.008;18.248;2023-10-19T19:58:15;97.70;;;38.10;;
57323;SDS011;43160;51.008;18.248;2023-10-19T20:08:02;96.00;;;39.40;;
57323;SDS011;43160;51.008;18.248;2023-10-19T20:18:00;89.20;;;37.30;;
57323;SDS011;43160;51.008;18.248;2023-10-19T20:27:49;90.60;;;34.60;;
57323;SDS011;43160;51.008;18.248;2023-10-19T20:37:36;103.80;;;33.90;;
57323;SDS011;43160;51.008;18.248;2023-10-19T20:47:27;83.40;;;33.80;;
57323;SDS011;43160;51.008;18.248;2023-10-19T20:57:11;82.90;;;31.00;;
57323;SDS011;43160;51.008;18.248;2023-10-19T21:06:58;79.90;;;32.00;;
57323;SDS011;43160;51.008;18.248;2023-10-19T21:14:18;213.90;;;71.30;;
57323;SDS011;43160;51.008;18.248;2023-10-19T21:16:44;217.80;;;72.30;;
57323;SDS011;43160;51.008;18.248;2023-10-19T21:26:28;96.00;;;35.80;;
57323;SDS011;43160;51.008;18.248;2023-10-19T21:36:12;88.40;;;36.00;;
57323;SDS011;43160;51.008;18.248;2023-10-19T21:45:59;87.50;;;37.00;;
57323;SDS011;43160;51.008;18.248;2023-10-19T21:55:54;68.10;;;19.10;;
57323;SDS011;43160;51.008;18.248;2023-10-19T22:05:59;95.50;;;32.60;;
57323;SDS011;43160;51.008;18.248;2023-10-19T22:15:43;113.70;;;36.40;;
57323;SDS011;43160;51.008;18.248;2023-10-19T22:25:29;92.90;;;35.20;;
57323;SDS011;43160;51.008;18.248;2023-10-19T22:35:13;98.20;;;33.00;;
57323;SDS011;43160;51.008;18.248;2023-10-19T22:44:57;107.00;;;38.40;;
57323;SDS011;43160;51.008;18.248;2023-10-19T22:54:40;88.30;;;32.80;;
57323;SDS011;43160;51.008;18.248;2023-10-19T23:04:25;92.60;;;38.20;;
57323;SDS011;43160;51.008;18.248;2023-10-19T23:14:25;113.40;;;35.80;;
57323;SDS011;43160;51.008;18.248;2023-10-19T23:24:22;93.80;;;37.70;;
57323;SDS011;43160;51.008;18.248;2023-10-19T23:34:15;104.30;;;34.90;;
57323;SDS011;43160;51.008;18.248;2023-10-19T23:51:22;119.40;;;33.80;;
